No particular awareness of the weather is required.    There are no Weather-warnings


Meteo18 Weather Cam more information Meteo18 Weather Cam


Thunder radar more information blitzortung!


Rain radar more information rain snow radar


Visit our other weather sites:

Template documentation
and downloads

And another site



Weather Underground History page Text

Daily Summary for February 16, 2018 Units:  Metric    English   Both
« Previous Day
Next Day »
Daily Weekly Monthly Yearly Custom
  High: Low: Average:
Temperature: -17.8 °C -15.1 °C -13.8 °C
Dew Point: -17.8 °C -15.6 °C -14.9 °C
Humidity: Humidity % 75 % 87 %
Wind Speed: 0 km/h 0 km/h 9.2 km/h
Wind Gust: 0 km/h - -
Wind:- - East
Pressure: 0 hPa 34510.1 hPa -
Precipitation: 7.62 mm    
Historical Graphs
 
 
Tabular Data for February 16, 2018
Time Temperature Dew Point Pressure Wind Wind Speed Wind Gust Humidity Rainfall Rate (Hourly)
-17.8 °C -17.8 °C 0 hPa Calm     Humidity % 0 mm
00:05 -12.8 °C -13.2 °C 34601.5 hPa WNW 2.3 km/h 12.9 km/h 95 % 0 mm
00:11 -12.8 °C -13.2 °C 34601.5 hPa Calm   7.7 km/h 95 % 0 mm
00:17 -12.8 °C -13.2 °C 34601.5 hPa Calm   2.6 km/h 95 % 0 mm
00:23 -12.8 °C -13.3 °C 34601.5 hPa Calm     95 % 0 mm
00:29 -12.8 °C -13.3 °C 34591.4 hPa Calm     95 % 0 mm
00:35 -12.8 °C -13.3 °C 34601.5 hPa Calm     95 % 0 mm
00:41 -12.8 °C -13.3 °C 34601.5 hPa NW 2.3 km/h 2.6 km/h 95 % 0 mm
00:47 -12.8 °C -13.3 °C 34611.7 hPa Calm   2.6 km/h 95 % 0 mm
00:53 -12.8 °C -13.3 °C 34611.7 hPa Calm   2.6 km/h 95 % 0 mm
01:00 -12.8 °C -13.3 °C 34611.7 hPa Calm     95 % 0 mm
01:06 -12.9 °C -13.2 °C 34625.2 hPa Calm   2.6 km/h 96 % 0 mm
01:12 -12.9 °C -13.2 °C 34625.2 hPa WNW 2.3 km/h 7.7 km/h 96 % 0 mm
01:18 -12.9 °C -13.2 °C 34625.2 hPa Calm   5.1 km/h 96 % 0 mm
01:24 -12.9 °C -13.3 °C 34625.2 hPa NE 26.2 km/h 28.5 km/h 96 % 0 mm
01:30 -13.1 °C -13.6 °C 34625.2 hPa NNE 10.3 km/h 20.8 km/h 95 % 0 mm
01:36 -13.2 °C -13.6 °C 34635.4 hPa NNW 7.6 km/h 18.2 km/h 96 % 0 mm
01:42 -13.3 °C -13.7 °C 34635.4 hPa NNW 2.3 km/h 25.9 km/h 96 % 0 mm
01:48 -13.4 °C -13.7 °C 34635.4 hPa NNE 12.7 km/h 25.9 km/h 96 % 0 mm
01:54 -13.4 °C -13.8 °C 34635.4 hPa NE 7.6 km/h 20.8 km/h 96 % 0 mm
02:00 -13.4 °C -13.8 °C 34635.4 hPa NW 5.1 km/h 15.6 km/h 96 % 0 mm
02:06 -13.5 °C -13.8 °C 34635.4 hPa NNW 5.1 km/h 10.3 km/h 96 % 0 mm
02:12 -13.5 °C -13.9 °C 34645.6 hPa North 12.7 km/h 18.2 km/h 95 % 0 mm
02:18 -13.6 °C -13.9 °C 34645.6 hPa North 10.3 km/h 25.9 km/h 95 % 0 mm
02:24 -13.7 °C -14.1 °C 34645.6 hPa NNW 10.3 km/h 20.8 km/h 95 % 0 mm
02:30 -13.7 °C -14.1 °C 34645.6 hPa North 10.3 km/h 23.3 km/h 95 % 0 mm
02:36 -13.7 °C -14.1 °C 34645.6 hPa NE 12.7 km/h 20.8 km/h 95 % 0 mm
02:42 -13.7 °C -14.1 °C 34645.6 hPa NNW 7.6 km/h 25.9 km/h 95 % 0 mm
02:54 -13.7 °C -14.1 °C 34659.1 hPa NNW 7.6 km/h 18.2 km/h 95 % 0 mm
03:00 -13.7 °C -14.1 °C 34659.1 hPa North 15.6 km/h 25.9 km/h 95 % 0 mm
03:06 -13.7 °C -14.1 °C 34659.1 hPa NW 15.6 km/h 25.9 km/h 95 % 0 mm
03:12 -13.8 °C -14.3 °C 34669.3 hPa NE 15.6 km/h 31.1 km/h 94 % 0 mm
03:18 -14.1 °C -14.7 °C 34669.3 hPa North 33.6 km/h 41.4 km/h 93 % 0 mm
03:24 -14.3 °C -14.9 °C 34669.3 hPa NNE 5.1 km/h 31.1 km/h 92 % 0 mm
03:30 -14.3 °C -14.9 °C 34682.8 hPa WNW 10.3 km/h 28.5 km/h 92 % 0 mm
03:36 -14.3 °C -15 °C 34682.8 hPa NNW 5.1 km/h 12.9 km/h 92 % 0 mm
03:42 -14.3 °C -15 °C 34682.8 hPa NNW 10.3 km/h 18.2 km/h 92 % 0 mm
03:54 -14.4 °C -14.9 °C 34682.8 hPa NNE 7.6 km/h 15.6 km/h 93 % 0 mm
04:00 -14.4 °C -14.9 °C 34682.8 hPa NW 2.3 km/h 15.6 km/h 93 % 0 mm
04:06 -14.4 °C -15 °C 34682.8 hPa NNE 7.6 km/h 15.6 km/h 93 % 0 mm
04:12 -14.5 °C -15.1 °C 34682.8 hPa NNE 2.3 km/h 15.6 km/h 93 % 0 mm
04:18 -14.6 °C -15.1 °C 34682.8 hPa NNW 7.6 km/h 18.2 km/h 93 % 0 mm
04:24 -14.6 °C -15.1 °C 34682.8 hPa NNE 10.3 km/h 18.2 km/h 93 % 0 mm
04:30 -14.6 °C -15.2 °C 34682.8 hPa North 10.3 km/h 12.9 km/h 93 % 0 mm
04:36 -14.6 °C -15.2 °C 34682.8 hPa NNW 12.7 km/h 18.2 km/h 93 % 0 mm
04:42 -14.6 °C -15.2 °C 34682.8 hPa East 5.1 km/h 18.2 km/h 93 % 0 mm
04:48 -14.6 °C -15.2 °C 34693 hPa North 12.7 km/h 15.6 km/h 93 % 0 mm
04:54 -14.6 °C -15.2 °C 34693 hPa North 2.3 km/h 7.7 km/h 93 % 0 mm
05:00 -14.6 °C -15.2 °C 34693 hPa North 10.3 km/h 23.3 km/h 93 % 0 mm
05:06 -14.6 °C -15.2 °C 34703.1 hPa North 5.1 km/h 10.3 km/h 93 % 0 mm
05:12 -14.6 °C -15.2 °C 34703.1 hPa North 2.3 km/h 10.3 km/h 93 % 0 mm
05:18 -14.6 °C -15.2 °C 34703.1 hPa North 5.1 km/h 7.7 km/h 92 % 0 mm
05:24 -14.6 °C -15.2 °C 34703.1 hPa North 2.3 km/h 7.7 km/h 92 % 0 mm
05:30 -14.6 °C -15.2 °C 34703.1 hPa Calm   7.7 km/h 92 % 0 mm
05:36 -14.6 °C -15.3 °C 34716.7 hPa North 2.3 km/h 5.1 km/h 92 % 0 mm
05:42 -14.6 °C -15.3 °C 34716.7 hPa Calm   5.1 km/h 92 % 0 mm
05:48 -14.6 °C -15.3 °C 34716.7 hPa North 5.1 km/h 10.3 km/h 92 % 0 mm
05:54 -14.6 °C -15.3 °C 34716.7 hPa North 15.6 km/h 20.8 km/h 92 % 0 mm
06:00 -14.6 °C -15.3 °C 34716.7 hPa North 7.6 km/h 10.3 km/h 92 % 0 mm
06:06 -14.6 °C -15.2 °C 34716.7 hPa NNW 5.1 km/h 10.3 km/h 93 % 0 mm
06:12 -14.7 °C -15.2 °C 34716.7 hPa Calm   10.3 km/h 93 % 0 mm
06:18 -14.7 °C -15.2 °C 34716.7 hPa NNW 10.3 km/h 12.9 km/h 93 % 0 mm
06:24 -14.7 °C -15.2 °C 34716.7 hPa NW 5.1 km/h 12.9 km/h 93 % 0 mm
06:30 -14.7 °C -15.3 °C 34716.7 hPa NNE 7.6 km/h 15.6 km/h 93 % 0 mm
06:36 -14.7 °C -15.3 °C 34716.7 hPa NNW 7.6 km/h 12.9 km/h 93 % 0 mm
06:42 -14.8 °C -15.3 °C 34716.7 hPa North 10.3 km/h 10.3 km/h 93 % 0 mm
06:48 -14.8 °C -15.3 °C 34716.7 hPa North 5.1 km/h 12.9 km/h 93 % 0 mm
06:54 -14.8 °C -15.3 °C 34716.7 hPa Calm   7.7 km/h 93 % 0 mm
07:00 -14.8 °C -15.3 °C 34716.7 hPa Calm   10.3 km/h 93 % 0 mm
07:06 -14.8 °C -15.4 °C 34726.8 hPa NNE 5.1 km/h 10.3 km/h 93 % 0 mm
07:12 -14.8 °C -15.4 °C 34726.8 hPa NNW 5.1 km/h 7.7 km/h 93 % 0 mm
07:18 -14.8 °C -15.4 °C 34726.8 hPa NNE 2.3 km/h 7.7 km/h 93 % 0 mm
07:24 -14.8 °C -15.4 °C 34726.8 hPa Calm   2.6 km/h 93 % 0 mm
07:30 -14.9 °C -15.4 °C 34726.8 hPa North 2.3 km/h 5.1 km/h 93 % 0 mm
07:36 -14.9 °C -15.4 °C 34726.8 hPa Calm   7.7 km/h 93 % 0 mm
07:42 -14.9 °C -15.4 °C 34726.8 hPa Calm   5.1 km/h 93 % 0 mm
07:48 -14.9 °C -15.5 °C 34740.4 hPa NNE 2.3 km/h 7.7 km/h 93 % 0 mm
07:54 -14.9 °C -15.5 °C 34726.8 hPa North 7.6 km/h 10.3 km/h 93 % 0 mm
08:00 -14.9 °C -15.5 °C 34740.4 hPa NNE 5.1 km/h 12.9 km/h 93 % 0 mm
08:06 -15 °C -15.6 °C 34740.4 hPa Calm   7.7 km/h 93 % 0 mm
08:12 -15.1 °C -15.6 °C 34740.4 hPa North 2.3 km/h 5.1 km/h 93 % 0 mm
08:18 -15.1 °C -15.6 °C 34750.5 hPa NNE 2.3 km/h 7.7 km/h 94 % 0 mm
08:24 -15.1 °C -15.6 °C 34740.4 hPa NNW 5.1 km/h 7.7 km/h 94 % 0 mm
08:30 -15.1 °C -15.6 °C 34750.5 hPa NNW 7.6 km/h 7.7 km/h 94 % 0 mm
08:37 -15.1 °C -15.6 °C 34760.7 hPa NNW 5.1 km/h 7.7 km/h 94 % 0 mm
08:43 -15.1 °C -15.6 °C 34760.7 hPa North 5.1 km/h 5.1 km/h 94 % 0 mm
08:49 -15.1 °C -15.6 °C 34760.7 hPa Calm   2.6 km/h 94 % 0 mm
08:55 -15.1 °C -15.6 °C 34760.7 hPa North 2.3 km/h 5.1 km/h 94 % 0 mm
09:01 -15.1 °C -15.6 °C 34760.7 hPa NNE 5.1 km/h 5.1 km/h 94 % 0 mm
09:07 -15.1 °C -15.4 °C 34760.7 hPa NE 5.1 km/h 7.7 km/h 95 % 0 mm
09:13 -14.9 °C -15.3 °C 34760.7 hPa NE 5.1 km/h 10.3 km/h 95 % 0 mm
09:19 -14.9 °C -15.4 °C 34760.7 hPa NNE 12.7 km/h 12.9 km/h 94 % 0 mm
09:25 -14.8 °C -15.3 °C 34774.2 hPa North 5.1 km/h 12.9 km/h 94 % 0 mm
09:31 -14.8 °C -15.3 °C 34774.2 hPa NNE 2.3 km/h 5.1 km/h 94 % 0 mm
09:37 -14.7 °C -15.2 °C 34760.7 hPa NE 5.1 km/h 5.1 km/h 94 % 0 mm
09:43 -14.6 °C -15.1 °C 34774.2 hPa NE 7.6 km/h 7.7 km/h 94 % 0 mm
09:49 -14.6 °C -15.2 °C 34760.7 hPa NE 7.6 km/h 15.6 km/h 93 % 0 mm
09:55 -14.6 °C -15.1 °C 34760.7 hPa NE 7.6 km/h 12.9 km/h 93 % 0 mm
10:01 -14.6 °C -15.2 °C 34774.2 hPa NE 10.3 km/h 20.8 km/h 92 % 0 mm
10:07 -14.5 °C -15.2 °C 34774.2 hPa ENE 7.6 km/h 15.6 km/h 92 % 0 mm
10:13 -14.5 °C -15.2 °C 34774.2 hPa NE 12.7 km/h 18.2 km/h 92 % 0 mm
10:19 -14.5 °C -15.2 °C 34774.2 hPa NNE 7.6 km/h 20.8 km/h 92 % 0 mm
10:25 -14.5 °C -15.2 °C 34774.2 hPa NNE 7.6 km/h 20.8 km/h 92 % 0 mm
10:31 -14.5 °C -15.2 °C 34774.2 hPa NE 2.3 km/h 18.2 km/h 92 % 0 mm
10:37 -14.5 °C -15.2 °C 34774.2 hPa NE 7.6 km/h 20.8 km/h 92 % 0 mm
10:43 -14.5 °C -15.2 °C 34774.2 hPa NNE 5.1 km/h 20.8 km/h 92 % 0 mm
10:49 -14.4 °C -15.2 °C 34774.2 hPa NNE 12.7 km/h 18.2 km/h 91 % 0 mm
10:55 -14.3 °C -15.1 °C 34774.2 hPa NE 12.7 km/h 23.3 km/h 91 % 0 mm
11:01 -14.2 °C -15.1 °C 34774.2 hPa North 7.6 km/h 25.9 km/h 90 % 0 mm
11:07 -14.2 °C -15.2 °C 34774.2 hPa ENE 7.6 km/h 23.3 km/h 89 % 0 mm
11:13 -14.2 °C -15.1 °C 34774.2 hPa NE 12.7 km/h 23.3 km/h 89 % 0 mm
11:19 -14.1 °C -15.1 °C 34774.2 hPa NE 10.3 km/h 25.9 km/h 89 % 0 mm
11:25 -14.1 °C -15.1 °C 34774.2 hPa East 12.7 km/h 20.8 km/h 88 % 0 mm
11:31 -13.9 °C -15.1 °C 34774.2 hPa NE 15.6 km/h 25.9 km/h 87 % 0 mm
11:37 -13.8 °C -15.1 °C 34774.2 hPa NE 17.9 km/h 25.9 km/h 86 % 0 mm
11:43 -13.8 °C -15.2 °C 34774.2 hPa NE 23 km/h 36.2 km/h 85 % 0 mm
11:49 -13.8 °C -15.2 °C 34774.2 hPa NNE 20.9 km/h 33.6 km/h 85 % 0 mm
11:55 -13.7 °C -15.1 °C 34760.7 hPa NE 20.9 km/h 33.6 km/h 85 % 0 mm
12:01 -13.7 °C -15.1 °C 34774.2 hPa NNE 26.2 km/h 33.6 km/h 84 % 0 mm
12:07 -13.6 °C -15.1 °C 34760.7 hPa NNE 15.6 km/h 31.1 km/h 83 % 0 mm
12:13 -13.5 °C -15 °C 34760.7 hPa ESE 12.7 km/h 31.1 km/h 83 % 0 mm
12:19 -13.4 °C -14.9 °C 34760.7 hPa ENE 33.6 km/h 33.6 km/h 83 % 0 mm
12:25 -13.4 °C -14.9 °C 34760.7 hPa ENE 12.7 km/h 31.1 km/h 83 % 0 mm
12:31 -13.4 °C -15 °C 34760.7 hPa NE 26.2 km/h 33.6 km/h 82 % 0 mm
12:37 -13.4 °C -15 °C 34760.7 hPa East 17.9 km/h 23.3 km/h 82 % 0 mm
12:43 -13.3 °C -15 °C 34760.7 hPa ENE 20.9 km/h 38.8 km/h 81 % 0 mm
12:49 -13.2 °C -14.9 °C 34750.5 hPa ENE 12.7 km/h 28.5 km/h 81 % 0 mm
12:55 -13.1 °C -14.9 °C 34750.5 hPa ENE 10.3 km/h 33.6 km/h 80 % 0 mm
13:01 -13.2 °C -14.9 °C 34740.4 hPa ENE 10.3 km/h 25.9 km/h 80 % 0 mm
13:07 -13.1 °C -14.9 °C 34750.5 hPa East 23 km/h 31.1 km/h 80 % 0 mm
13:13 -13.1 °C -15 °C 34750.5 hPa NNE 20.9 km/h 20.9 km/h 79 % 0 mm
13:19 -13.2 °C -14.9 °C 34740.4 hPa NNE 20.9 km/h 28.5 km/h 80 % 0 mm
13:25 -13 °C -14.7 °C 34740.4 hPa ENE 10.3 km/h 20.8 km/h 81 % 0 mm
13:31 -12.9 °C -14.8 °C 34740.4 hPa NE 15.6 km/h 25.9 km/h 79 % 0 mm
13:37 -12.9 °C -14.8 °C 34740.4 hPa ENE 23 km/h 23.3 km/h 80 % 0 mm
13:43 -13 °C -14.8 °C 34726.8 hPa East 10.3 km/h 33.6 km/h 80 % 0 mm
13:49 -12.9 °C -14.8 °C 34726.8 hPa NE 5.1 km/h 25.9 km/h 79 % 0 mm
13:55 -12.9 °C -14.9 °C 34726.8 hPa NE 26.2 km/h 28.5 km/h 78 % 0 mm
14:01 -12.9 °C -15 °C 34726.8 hPa NNE 26.2 km/h 33.6 km/h 77 % 0 mm
14:07 -12.9 °C -14.9 °C 34726.8 hPa NNE 5.1 km/h 25.9 km/h 78 % 0 mm
14:13 -12.8 °C -14.9 °C 34716.7 hPa NE 10.3 km/h 18.2 km/h 77 % 0 mm
14:19 -12.8 °C -15 °C 34716.7 hPa NE 20.9 km/h 31.1 km/h 76 % 0 mm
14:25 -12.8 °C -15.2 °C 34716.7 hPa NNE 15.6 km/h 20.8 km/h 75 % 0 mm
14:31 -12.7 °C -14.8 °C 34716.7 hPa NE 17.9 km/h 23.3 km/h 77 % 0 mm
14:37 -12.7 °C -15.1 °C 34716.7 hPa NNE 12.7 km/h 23.3 km/h 75 % 0 mm
14:43 -12.7 °C -15.1 °C 34716.7 hPa NNE 17.9 km/h 28.5 km/h 75 % 0 mm
14:49 -12.8 °C -15.1 °C 34703.1 hPa NNE 23 km/h 23.3 km/h 75 % 0 mm
14:55 -12.8 °C -15 °C 34703.1 hPa ENE 20.9 km/h 20.9 km/h 76 % 0 mm
15:01 -12.8 °C -15 °C 34703.1 hPa ENE 7.6 km/h 25.9 km/h 76 % 0 mm
15:07 -12.7 °C -14.9 °C 34693 hPa East 15.6 km/h 18.2 km/h 76 % 0 mm
15:13 -12.8 °C -15 °C 34693 hPa North 17.9 km/h 23.3 km/h 76 % 0 mm
15:19 -12.8 °C -15.1 °C 34693 hPa North 20.9 km/h 20.9 km/h 76 % 0 mm
15:25 -12.8 °C -15.1 °C 34693 hPa ENE 10.3 km/h 23.3 km/h 76 % 0 mm
15:31 -12.8 °C -15.1 °C 34682.8 hPa NNE 7.6 km/h 23.3 km/h 76 % 0 mm
15:37 -12.8 °C -14.9 °C 34682.8 hPa ENE 7.6 km/h 23.3 km/h 77 % 0 mm
15:43 -12.8 °C -14.9 °C 34693 hPa NNE 10.3 km/h 25.9 km/h 77 % 0 mm
15:49 -12.8 °C -14.9 °C 34693 hPa NE 20.9 km/h 23.3 km/h 77 % 0 mm
15:55 -12.8 °C -14.7 °C 34682.8 hPa NE 7.6 km/h 12.9 km/h 79 % 0 mm
16:01 -12.8 °C -14.8 °C 34682.8 hPa NNE 7.6 km/h 20.8 km/h 78 % 0 mm
16:07 -12.8 °C -14.8 °C 34669.3 hPa NE 12.7 km/h 25.9 km/h 78 % 0 mm
16:13 -12.8 °C -14.7 °C 34669.3 hPa NE 17.9 km/h 23.3 km/h 79 % 0 mm
16:19 -12.8 °C -14.7 °C 34669.3 hPa ENE 10.3 km/h 25.9 km/h 79 % 0 mm
16:25 -12.8 °C -14.7 °C 34669.3 hPa ENE 10.3 km/h 18.2 km/h 79 % 0 mm
16:31 -12.8 °C -14.7 °C 34669.3 hPa NNE 17.9 km/h 20.8 km/h 79 % 0 mm
16:37 -12.9 °C -14.8 °C 34669.3 hPa NE 7.6 km/h 12.9 km/h 79 % 0 mm
16:43 -12.9 °C -14.8 °C 34669.3 hPa ENE 10.3 km/h 23.3 km/h 79 % 0 mm
16:49 -12.9 °C -14.9 °C 34669.3 hPa NE 10.3 km/h 33.6 km/h 78 % 0 mm
16:55 -12.9 °C -14.8 °C 34669.3 hPa ENE 17.9 km/h 23.3 km/h 79 % 0 mm
17:01 -12.9 °C -14.8 °C 34669.3 hPa NE 15.6 km/h 23.3 km/h 80 % 0 mm
17:07 -12.9 °C -14.8 °C 34669.3 hPa NE 15.6 km/h 25.9 km/h 79 % 0 mm
17:13 -13 °C -14.8 °C 34659.1 hPa NNE 15.6 km/h 15.6 km/h 80 % 0 mm
17:19 -13 °C -14.8 °C 34659.1 hPa East 2.3 km/h 15.6 km/h 80 % 0 mm
17:25 -13 °C -14.8 °C 34659.1 hPa NNE 5.1 km/h 15.6 km/h 80 % 0 mm
17:32 -13.1 °C -14.8 °C 34659.1 hPa NNE 10.3 km/h 18.2 km/h 81 % 0 mm
17:38 -13.1 °C -14.8 °C 34645.6 hPa NNE 7.6 km/h 15.6 km/h 81 % 0 mm
17:44 -13.1 °C -14.8 °C 34659.1 hPa NNE 10.3 km/h 20.8 km/h 81 % 0 mm
17:50 -13.1 °C -14.7 °C 34645.6 hPa NE 10.3 km/h 18.2 km/h 82 % 0 mm
17:56 -13.2 °C -14.8 °C 34645.6 hPa NNE 10.3 km/h 18.2 km/h 82 % 0 mm
18:02 -13.2 °C -14.8 °C 34645.6 hPa NE 12.7 km/h 20.8 km/h 82 % 0 mm
18:08 -13.2 °C -14.8 °C 34645.6 hPa NE 12.7 km/h 18.2 km/h 82 % 0 mm
18:14 -13.2 °C -14.7 °C 34645.6 hPa NE 2.3 km/h 18.2 km/h 83 % 0 mm
18:20 -13.3 °C -14.9 °C 34645.6 hPa East 2.3 km/h 15.6 km/h 82 % 0 mm
18:26 -13.3 °C -14.8 °C 34645.6 hPa ENE 12.7 km/h 18.2 km/h 83 % 0 mm
18:32 -13.3 °C -14.8 °C 34645.6 hPa NE 10.3 km/h 12.9 km/h 83 % 0 mm
18:38 -13.3 °C -14.8 °C 34635.4 hPa Calm   10.3 km/h 83 % 0 mm
18:44 -13.3 °C -14.7 °C 34635.4 hPa East 2.3 km/h 10.3 km/h 84 % 0 mm
18:50 -13.4 °C -14.8 °C 34645.6 hPa ENE 7.6 km/h 12.9 km/h 84 % 0 mm
18:56 -13.4 °C -14.8 °C 34645.6 hPa East 7.6 km/h 10.3 km/h 84 % 0 mm
19:02 -13.4 °C -14.8 °C 34635.4 hPa East 5.1 km/h 10.3 km/h 84 % 0 mm
19:08 -13.4 °C -14.9 °C 34635.4 hPa ENE 10.3 km/h 18.2 km/h 83 % 0 mm
19:14 -13.4 °C -14.9 °C 34635.4 hPa ENE 5.1 km/h 20.8 km/h 83 % 0 mm
19:20 -13.4 °C -14.9 °C 34635.4 hPa NE 10.3 km/h 18.2 km/h 83 % 0 mm
19:26 -13.5 °C -15 °C 34635.4 hPa ENE 2.3 km/h 12.9 km/h 83 % 0 mm
19:32 -13.5 °C -15 °C 34635.4 hPa ENE 7.6 km/h 15.6 km/h 83 % 0 mm
19:38 -13.5 °C -15 °C 34635.4 hPa East 12.7 km/h 12.9 km/h 83 % 0 mm
19:44 -13.5 °C -15 °C 34625.2 hPa ENE 12.7 km/h 15.6 km/h 83 % 0 mm
19:50 -13.6 °C -15.1 °C 34625.2 hPa NE 5.1 km/h 12.9 km/h 83 % 0 mm
19:56 -13.6 °C -15.1 °C 34625.2 hPa NE 5.1 km/h 15.6 km/h 83 % 0 mm
20:02 -13.6 °C -15.1 °C 34625.2 hPa NE 12.7 km/h 18.2 km/h 83 % 0 mm
20:08 -13.6 °C -15.1 °C 34625.2 hPa NNE 23 km/h 23.3 km/h 83 % 0 mm
20:14 -13.6 °C -15.1 °C 34625.2 hPa ENE 17.9 km/h 18.2 km/h 83 % 0 mm
20:20 -13.6 °C -15.1 °C 34611.7 hPa ENE 17.9 km/h 23.3 km/h 83 % 0 mm
20:26 -13.7 °C -15.2 °C 34611.7 hPa NNE 17.9 km/h 18.2 km/h 83 % 0 mm
20:32 -13.7 °C -15.2 °C 34611.7 hPa NE 15.6 km/h 20.8 km/h 83 % 0 mm
20:38 -13.7 °C -15.2 °C 34611.7 hPa NE 17.9 km/h 23.3 km/h 83 % 0 mm
20:44 -13.7 °C -15.2 °C 34611.7 hPa NE 12.7 km/h 20.8 km/h 83 % 0 mm
20:50 -13.7 °C -15.2 °C 34611.7 hPa NE 5.1 km/h 18.2 km/h 83 % 0 mm
20:56 -13.7 °C -15.2 °C 34611.7 hPa NE 12.7 km/h 25.9 km/h 83 % 0 mm
21:02 -13.7 °C -15.2 °C 34601.5 hPa NNE 5.1 km/h 18.2 km/h 83 % 0 mm
21:08 -13.7 °C -15.2 °C 34601.5 hPa NE 2.3 km/h 12.9 km/h 83 % 0 mm
21:14 -13.7 °C -15.1 °C 34601.5 hPa NE 7.6 km/h 12.9 km/h 84 % 0 mm
21:20 -13.7 °C -15.2 °C 34601.5 hPa ENE 10.3 km/h 15.6 km/h 83 % 0 mm
21:26 -13.7 °C -15.2 °C 34601.5 hPa NE 7.6 km/h 12.9 km/h 83 % 0 mm
21:34 -13.8 °C -15.2 °C 34591.4 hPa NE 5.1 km/h 7.7 km/h 84 % 0 mm
21:40 -13.8 °C -15.2 °C 34591.4 hPa NE 5.1 km/h 12.9 km/h 85 % 0 mm
21:46 -13.8 °C -15.2 °C 34577.8 hPa NE 10.3 km/h 15.6 km/h 85 % 0 mm
21:52 -13.8 °C -15.2 °C 34591.4 hPa NNE 10.3 km/h 15.6 km/h 85 % 0 mm
21:58 -13.9 °C -15.2 °C 34577.8 hPa NE 12.7 km/h 12.9 km/h 85 % 0 mm
22:04 -13.9 °C -15.2 °C 34577.8 hPa NE 10.3 km/h 12.9 km/h 85 % 0 mm
22:10 -13.9 °C -15.2 °C 34577.8 hPa NNE 12.7 km/h 12.9 km/h 85 % 0 mm
22:18 -13.9 °C -15.2 °C 34577.8 hPa NE 7.6 km/h 18.2 km/h 86 % 0 mm
22:24 -13.9 °C -15.2 °C 34567.7 hPa NE 10.3 km/h 15.6 km/h 86 % 0 mm
22:30 -13.9 °C -15.2 °C 34567.7 hPa NE 7.6 km/h 12.9 km/h 86 % 0 mm
22:36 -13.9 °C -15.2 °C 34567.7 hPa ENE 7.6 km/h 18.2 km/h 86 % 0 mm
22:42 -13.9 °C -15.2 °C 34567.7 hPa NE 2.3 km/h 10.3 km/h 86 % 0 mm
22:48 -13.9 °C -15.2 °C 34567.7 hPa ENE 5.1 km/h 7.7 km/h 86 % 0 mm
22:54 -13.9 °C -15.2 °C 34554.1 hPa NE 2.3 km/h 7.7 km/h 86 % 0 mm
23:00 -13.9 °C -15.2 °C 34554.1 hPa NNE 2.3 km/h 18.2 km/h 86 % 0 mm
23:06 -13.9 °C -15.2 °C 34554.1 hPa NE 5.1 km/h 10.3 km/h 86 % 0 mm
23:12 -14 °C -15.2 °C 34544 hPa Calm   10.3 km/h 86 % 0 mm
23:18 -14 °C -15.1 °C 34533.8 hPa ENE 2.3 km/h 7.7 km/h 87 % 0 mm
23:24 -14 °C -15.1 °C 34533.8 hPa ENE 5.1 km/h 12.9 km/h 87 % 0 mm
23:30 -14.1 °C -15.2 °C 34520.3 hPa East 10.3 km/h 12.9 km/h 87 % 0 mm
23:36 -14.1 °C -15.2 °C 34520.3 hPa NE 2.3 km/h 10.3 km/h 87 % 0 mm
23:42 -14.1 °C -15.1 °C 34520.3 hPa Calm   10.3 km/h 88 % 0 mm
23:48 -14.1 °C -15.1 °C 34520.3 hPa ENE 10.3 km/h 10.3 km/h 88 % 0 mm
23:54 -14.2 °C -15.1 °C 34510.1 hPa NE 7.6 km/h 10.3 km/h 89 % 7.62 mm
Meteo18
Compliments of Weather Underground - 4 mb

Script developed by  Jim McMurry - jmcmurry@mwt.net Adapted for the template by  Wim van der Kuil - Leuven-Template.eu

You find our weather info also at:

European Weather Network

Weather Underground

Equipment we use:

Weather-station
Davis Vue

Weather-program
Meteobridge

Weather-server
Raspberry PI 2 B+

Provider
1 and 1

Davis Vue

Meteobridge

Raspberry PI 2 B+

1 and 1